createdAt,value
2022-10-11T00:00:28.209Z,4.26
2022-10-11T00:02:54.586Z,4.38
2022-10-11T00:05:20.936Z,4.58
2022-10-11T00:07:47.293Z,4.46
2022-10-11T00:10:13.657Z,4.16
2022-10-11T00:12:40.024Z,4.43
2022-10-11T00:15:06.381Z,4.46
2022-10-11T00:17:32.736Z,4.56
2022-10-11T00:19:59.108Z,4.89
2022-10-11T00:22:25.449Z,5.22
2022-10-11T00:24:51.803Z,5.05
2022-10-11T00:27:18.157Z,4.72
2022-10-11T00:29:44.521Z,4.99
2022-10-11T00:32:10.876Z,4.82
2022-10-11T00:34:37.260Z,4.47
2022-10-11T00:37:03.645Z,5.04
2022-10-11T00:39:30.011Z,4.92
2022-10-11T00:41:56.379Z,4.75
2022-10-11T00:44:22.719Z,4.53
2022-10-11T00:46:51.022Z,4.90
2022-10-11T00:49:18.997Z,4.65
2022-10-11T00:51:45.353Z,4.88
2022-10-11T00:54:11.727Z,4.70
2022-10-11T00:56:38.085Z,4.63
2022-10-11T00:59:04.484Z,4.70
2022-10-11T01:01:30.880Z,4.42
2022-10-11T01:03:57.314Z,4.29
2022-10-11T01:06:23.671Z,4.48
2022-10-11T01:08:50.035Z,4.19
2022-10-11T01:11:16.375Z,4.32
2022-10-11T01:13:42.742Z,3.88
2022-10-11T01:16:09.110Z,3.70
2022-10-11T01:18:35.467Z,3.94
2022-10-11T01:21:01.831Z,3.62
2022-10-11T01:23:28.187Z,3.66
2022-10-11T01:25:54.550Z,3.59
2022-10-11T01:28:20.976Z,3.56
2022-10-11T01:30:47.397Z,3.85
2022-10-11T01:33:13.755Z,3.43
2022-10-11T01:35:40.132Z,3.64
2022-10-11T01:38:06.508Z,3.36
2022-10-11T01:40:32.873Z,3.47
2022-10-11T01:42:59.239Z,3.40
2022-10-11T01:45:25.611Z,3.71
2022-10-11T01:47:51.956Z,3.59
2022-10-11T01:50:18.325Z,3.39
2022-10-11T01:52:44.669Z,3.48
2022-10-11T01:55:11.064Z,3.63
2022-10-11T01:57:37.403Z,3.74
2022-10-11T02:00:03.779Z,3.57
2022-10-11T02:02:30.138Z,3.16
2022-10-11T02:04:56.491Z,3.49
2022-10-11T02:07:22.837Z,3.76
2022-10-11T02:09:49.208Z,3.78
2022-10-11T02:12:15.562Z,3.42
2022-10-11T02:14:41.910Z,3.49
2022-10-11T02:17:08.277Z,3.58
2022-10-11T02:19:34.631Z,3.49
2022-10-11T02:22:00.993Z,3.72
2022-10-11T02:24:27.332Z,3.88
2022-10-11T02:26:53.688Z,4.03
2022-10-11T02:29:20.030Z,3.90
2022-10-11T02:31:46.391Z,3.88
2022-10-11T02:34:12.747Z,3.89
2022-10-11T02:36:39.121Z,3.81
2022-10-11T02:39:05.467Z,3.87
2022-10-11T02:41:31.824Z,3.92
2022-10-11T02:43:58.174Z,3.84
2022-10-11T02:46:24.525Z,3.53
2022-10-11T02:48:50.886Z,3.76
2022-10-11T02:51:17.245Z,3.43
2022-10-11T02:53:43.610Z,3.23
2022-10-11T02:56:09.956Z,3.37
2022-10-11T02:58:36.316Z,3.05
2022-10-11T03:01:02.673Z,2.95
2022-10-11T03:03:29.062Z,3.20
2022-10-11T03:05:55.437Z,3.08
2022-10-11T03:08:21.801Z,3.08
2022-10-11T03:10:48.165Z,3.08
2022-10-11T03:13:18.178Z,2.80
2022-10-11T03:15:44.915Z,2.94
2022-10-11T03:18:11.269Z,3.11
2022-10-11T03:20:37.632Z,2.93
2022-10-11T03:23:03.987Z,3.06
2022-10-11T03:25:30.337Z,3.13
2022-10-11T03:27:56.694Z,2.74
2022-10-11T03:30:23.084Z,2.99
2022-10-11T03:32:49.437Z,2.81
2022-10-11T03:35:15.779Z,3.06
2022-10-11T03:37:42.148Z,2.66
2022-10-11T03:40:08.511Z,2.89
2022-10-11T03:42:34.883Z,2.96
2022-10-11T03:45:01.277Z,3.39
2022-10-11T03:47:27.631Z,4.02
2022-10-11T03:49:53.989Z,3.36
2022-10-11T03:52:20.332Z,3.26
2022-10-11T03:54:46.693Z,3.15
2022-10-11T03:57:13.049Z,3.15
2022-10-11T03:59:39.401Z,2.95
2022-10-11T04:02:05.811Z,2.99
2022-10-11T04:04:32.204Z,3.01
2022-10-11T04:06:58.598Z,3.01
2022-10-11T04:09:24.995Z,2.96
2022-10-11T04:11:51.352Z,2.87
2022-10-11T04:14:17.724Z,3.25
2022-10-11T04:16:44.072Z,3.61
2022-10-11T04:19:10.431Z,3.55
2022-10-11T04:21:36.812Z,3.44
2022-10-11T04:24:03.175Z,3.19
2022-10-11T04:26:29.571Z,3.07
2022-10-11T04:28:56.074Z,3.41
2022-10-11T04:31:22.500Z,3.27
2022-10-11T04:33:48.852Z,3.16
2022-10-11T04:36:15.251Z,3.23
2022-10-11T04:38:41.615Z,3.46
2022-10-11T04:41:07.986Z,4.10
2022-10-11T04:43:34.345Z,3.59
2022-10-11T04:46:00.718Z,3.47
2022-10-11T04:48:27.079Z,3.35
2022-10-11T04:50:53.447Z,3.24
2022-10-11T04:53:19.801Z,3.35
2022-10-11T04:55:46.169Z,3.38
2022-10-11T04:58:12.569Z,3.65
2022-10-11T05:00:38.952Z,3.65
2022-10-11T05:03:05.305Z,3.47
2022-10-11T05:05:31.651Z,3.70
2022-10-11T05:07:58.003Z,3.78
2022-10-11T05:10:24.429Z,3.51
2022-10-11T05:12:50.777Z,3.56
2022-10-11T05:15:17.129Z,3.71
2022-10-11T05:17:43.491Z,3.68
2022-10-11T05:20:09.945Z,3.39
2022-10-11T05:22:36.286Z,3.07
2022-10-11T05:25:03.068Z,3.53
2022-10-11T05:27:29.458Z,3.40
2022-10-11T05:29:55.820Z,3.56
2022-10-11T05:32:25.542Z,3.30
2022-10-11T05:34:54.023Z,3.66
2022-10-11T05:37:20.391Z,3.42
2022-10-11T05:39:46.734Z,3.37
2022-10-11T05:42:13.082Z,3.30
2022-10-11T05:44:39.420Z,3.49
2022-10-11T05:47:05.789Z,3.90
2022-10-11T05:49:32.151Z,3.88
2022-10-11T05:51:58.533Z,3.79
2022-10-11T05:54:24.883Z,3.97
2022-10-11T05:56:51.331Z,3.65
2022-10-11T05:59:17.724Z,3.49
2022-10-11T06:01:44.117Z,4.22
2022-10-11T06:04:10.554Z,4.17
2022-10-11T06:06:36.909Z,3.59
2022-10-11T06:09:03.277Z,3.74
2022-10-11T06:11:29.623Z,3.95
2022-10-11T06:13:56.017Z,4.60
2022-10-11T06:16:22.384Z,5.27
2022-10-11T06:18:48.808Z,4.12
2022-10-11T06:21:15.161Z,4.13
2022-10-11T06:23:41.563Z,4.23
2022-10-11T06:26:08.599Z,4.00
2022-10-11T06:28:35.684Z,4.38
2022-10-11T06:31:02.079Z,4.45
2022-10-11T06:33:28.447Z,4.40
2022-10-11T06:35:54.802Z,4.29
2022-10-11T06:38:21.157Z,4.02
2022-10-11T06:40:47.526Z,3.90
2022-10-11T06:43:13.896Z,3.95
2022-10-11T06:45:40.254Z,3.72
2022-10-11T06:48:06.780Z,4.37
2022-10-11T06:50:57.815Z,4.56
2022-10-11T06:53:19.544Z,4.41
2022-10-11T06:55:45.898Z,3.90
2022-10-11T06:58:12.305Z,3.93
2022-10-11T07:00:38.704Z,4.24
2022-10-11T07:03:05.068Z,3.82
2022-10-11T07:05:31.419Z,3.75
2022-10-11T07:07:57.759Z,3.91
2022-10-11T07:10:24.125Z,3.79
2022-10-11T07:12:50.497Z,3.96
2022-10-11T07:15:17.566Z,4.07
2022-10-11T07:17:45.329Z,3.71
2022-10-11T07:20:11.702Z,3.79
2022-10-11T07:22:38.121Z,4.22
2022-10-11T07:25:04.470Z,4.51
2022-10-11T07:27:30.845Z,4.66
2022-10-11T07:29:57.207Z,4.49
2022-10-11T07:32:23.585Z,4.70
2022-10-11T07:34:49.932Z,4.86
2022-10-11T07:37:16.301Z,4.45
2022-10-11T07:39:42.714Z,4.10
2022-10-11T07:42:09.067Z,4.06
2022-10-11T07:44:35.436Z,4.04
2022-10-11T07:47:01.786Z,3.84
2022-10-11T07:49:28.162Z,3.89
2022-10-11T07:51:54.523Z,4.43
2022-10-11T07:54:20.883Z,4.36
2022-10-11T07:56:47.284Z,4.03
2022-10-11T07:59:13.660Z,4.27
2022-10-11T08:01:40.162Z,4.66
2022-10-11T08:04:06.582Z,4.87
2022-10-11T08:06:33.104Z,5.02
2022-10-11T08:08:59.507Z,4.89
2022-10-11T08:11:25.859Z,4.86
2022-10-11T08:13:52.238Z,5.13
2022-10-11T08:16:18.583Z,5.34
2022-10-11T08:18:44.946Z,5.35
2022-10-11T08:21:11.312Z,5.47
2022-10-11T08:23:37.677Z,5.51
2022-10-11T08:26:04.328Z,7.33
2022-10-11T08:28:30.975Z,7.76
2022-10-11T08:30:57.358Z,7.88
2022-10-11T08:33:23.708Z,7.59
2022-10-11T08:35:50.123Z,7.18
2022-10-11T08:38:16.478Z,7.80
2022-10-11T08:40:42.851Z,7.73
2022-10-11T08:43:09.222Z,8.03
2022-10-11T08:45:35.576Z,7.81
2022-10-11T08:48:02.007Z,7.61
2022-10-11T08:50:28.370Z,7.62
2022-10-11T08:52:54.727Z,7.96
2022-10-11T08:55:21.123Z,8.26
2022-10-11T08:57:47.467Z,8.57
2022-10-11T09:00:13.825Z,8.42
2022-10-11T09:03:06.258Z,7.91
2022-10-11T09:05:26.511Z,8.25
2022-10-11T09:07:52.878Z,8.08
2022-10-11T09:10:19.231Z,7.99
2022-10-11T09:12:45.599Z,8.00
2022-10-11T09:15:11.971Z,8.07
2022-10-11T09:17:38.341Z,8.59
2022-10-11T09:20:04.727Z,7.45
2022-10-11T09:22:31.095Z,7.96
2022-10-11T09:24:57.472Z,8.28
2022-10-11T09:27:43.678Z,8.14
2022-10-11T09:30:10.207Z,8.58
2022-10-11T09:32:36.559Z,8.24
2022-10-11T09:35:02.935Z,7.10
2022-10-11T09:37:29.310Z,7.90
2022-10-11T09:39:55.697Z,7.53
2022-10-11T09:42:22.067Z,7.97
2022-10-11T09:44:48.709Z,7.36
2022-10-11T09:47:15.073Z,7.47
2022-10-11T09:49:41.527Z,7.29
2022-10-11T09:52:07.919Z,8.44
2022-10-11T09:54:34.285Z,9.64
2022-10-11T09:57:00.691Z,9.68
2022-10-11T09:59:27.044Z,9.81
2022-10-11T10:01:53.477Z,9.03
2022-10-11T10:04:19.880Z,9.00
2022-10-11T10:06:46.275Z,9.59
2022-10-11T10:09:12.629Z,8.85
2022-10-11T10:11:38.976Z,8.67
2022-10-11T10:14:05.342Z,8.77
2022-10-11T10:16:31.714Z,9.03
2022-10-11T10:18:58.078Z,9.97
2022-10-11T10:21:24.437Z,8.58
2022-10-11T10:23:50.790Z,8.37
2022-10-11T10:26:17.145Z,8.63
2022-10-11T10:28:43.590Z,8.64
2022-10-11T10:31:09.985Z,8.48
2022-10-11T10:33:36.343Z,8.90
2022-10-11T10:36:03.076Z,9.01
2022-10-11T10:38:29.754Z,8.95
2022-10-11T10:40:56.130Z,9.45
2022-10-11T10:43:22.511Z,9.47
2022-10-11T10:45:48.878Z,9.60
2022-10-11T10:48:15.255Z,9.72
2022-10-11T10:50:41.612Z,9.56
2022-10-11T10:53:07.995Z,9.32
2022-10-11T10:55:34.360Z,8.85
2022-10-11T10:58:00.723Z,9.30
2022-10-11T11:00:27.086Z,8.72
2022-10-11T11:02:53.468Z,8.64
2022-10-11T11:05:19.885Z,9.89
2022-10-11T11:07:46.300Z,10.23
2022-10-11T11:10:12.648Z,10.21
2022-10-11T11:12:39.041Z,10.03
2022-10-11T11:15:05.403Z,9.74
2022-10-11T11:17:31.759Z,10.30
2022-10-11T11:19:58.103Z,10.36
2022-10-11T11:22:25.601Z,10.79
2022-10-11T11:24:54.403Z,10.27
2022-10-11T11:27:20.760Z,10.76
2022-10-11T11:29:47.796Z,11.02
2022-10-11T11:32:16.179Z,11.42
2022-10-11T11:34:42.586Z,11.09
2022-10-11T11:37:08.967Z,10.56
2022-10-11T11:39:35.323Z,11.89
2022-10-11T11:42:01.677Z,11.55
2022-10-11T11:44:28.053Z,11.52
2022-10-11T11:46:54.403Z,11.41
2022-10-11T11:49:20.761Z,12.15
2022-10-11T11:51:47.114Z,12.08
2022-10-11T11:54:13.525Z,12.87
2022-10-11T11:56:39.902Z,12.98
2022-10-11T11:59:06.293Z,13.21
2022-10-11T12:01:32.697Z,12.17
2022-10-11T12:03:59.070Z,12.25
2022-10-11T12:06:25.477Z,12.72
2022-10-11T12:08:51.843Z,12.16
2022-10-11T12:11:18.195Z,11.71
2022-10-11T12:13:44.585Z,11.45
2022-10-11T12:16:10.959Z,12.11
2022-10-11T12:18:42.586Z,11.97
2022-10-11T12:21:09.338Z,11.74
2022-10-11T12:23:35.987Z,11.97
2022-10-11T12:26:02.343Z,11.81
2022-10-11T12:28:28.702Z,12.23
2022-10-11T12:30:55.124Z,12.25
2022-10-11T12:33:21.506Z,11.94
2022-10-11T12:35:47.923Z,12.57
2022-10-11T12:38:14.278Z,11.72
2022-10-11T12:40:40.647Z,11.62
2022-10-11T12:43:07.011Z,11.61
2022-10-11T12:45:33.374Z,11.76
2022-10-11T12:47:59.731Z,11.23
2022-10-11T12:50:26.081Z,10.78
2022-10-11T12:52:52.451Z,12.13
2022-10-11T12:55:18.806Z,11.94
2022-10-11T12:57:46.492Z,11.79
2022-10-11T13:00:13.073Z,11.75
2022-10-11T13:02:39.453Z,12.08
2022-10-11T13:05:05.792Z,13.22
2022-10-11T13:07:32.149Z,12.60
2022-10-11T13:09:58.519Z,12.83
2022-10-11T13:12:24.904Z,12.74
2022-10-11T13:14:51.286Z,14.60
2022-10-11T13:17:17.683Z,14.91
2022-10-11T13:19:44.055Z,14.96
2022-10-11T13:22:10.413Z,15.59
2022-10-11T13:24:36.796Z,14.93
2022-10-11T13:27:03.147Z,15.36
2022-10-11T13:29:29.523Z,15.22
2022-10-11T13:31:55.909Z,15.01
2022-10-11T13:34:23.477Z,15.33
2022-10-11T13:36:50.022Z,15.62
2022-10-11T13:39:16.401Z,14.39
2022-10-11T13:41:42.760Z,14.27
2022-10-11T13:44:09.125Z,14.61
2022-10-11T13:46:35.478Z,14.30
2022-10-11T13:49:01.875Z,13.79
2022-10-11T13:51:28.259Z,13.75
2022-10-11T13:53:54.601Z,14.29
2022-10-11T13:56:20.967Z,13.27
2022-10-11T13:58:47.319Z,13.09
2022-10-11T14:01:13.742Z,13.85
2022-10-11T14:03:40.139Z,13.92
2022-10-11T14:06:06.926Z,13.45
2022-10-11T14:08:33.607Z,12.56
2022-10-11T14:11:05.877Z,12.48
2022-10-11T14:13:32.719Z,12.76
2022-10-11T14:15:59.121Z,12.99
2022-10-11T14:18:25.487Z,12.51
2022-10-11T14:20:51.857Z,12.50
2022-10-11T14:23:18.237Z,12.06
2022-10-11T14:25:44.601Z,11.86
2022-10-11T14:28:11.059Z,11.75
2022-10-11T14:30:37.460Z,12.90
2022-10-11T14:33:03.821Z,12.82
2022-10-11T14:35:30.194Z,12.42
2022-10-11T14:37:56.535Z,11.97
2022-10-11T14:40:22.907Z,11.76
2022-10-11T14:42:49.260Z,11.50
2022-10-11T14:45:15.611Z,11.52
2022-10-11T14:47:43.130Z,12.06
2022-10-11T14:50:09.726Z,12.07
2022-10-11T14:52:36.088Z,11.53
2022-10-11T14:55:02.456Z,9.89
2022-10-11T14:57:28.842Z,9.04
2022-10-11T14:59:55.227Z,7.70
2022-10-11T15:02:21.591Z,6.18
2022-10-11T15:04:47.943Z,5.25
2022-10-11T15:07:14.303Z,5.09
2022-10-11T15:09:40.671Z,5.20
2022-10-11T15:12:07.023Z,5.43
2022-10-11T15:14:33.403Z,5.42
2022-10-11T15:16:59.749Z,5.37
2022-10-11T15:19:26.112Z,5.55
2022-10-11T15:21:52.493Z,5.43
2022-10-11T15:24:18.863Z,4.76
2022-10-11T15:26:45.220Z,4.49
2022-10-11T15:29:11.612Z,4.42
2022-10-11T15:31:37.976Z,4.49
2022-10-11T15:34:04.347Z,4.58
2022-10-11T15:36:30.709Z,4.81
2022-10-11T15:38:57.215Z,4.70
2022-10-11T15:41:23.626Z,4.54
2022-10-11T15:43:49.967Z,4.81
2022-10-11T15:46:16.323Z,5.04
2022-10-11T15:48:42.681Z,4.89
2022-10-11T15:51:09.114Z,5.09
2022-10-11T15:53:35.466Z,5.43
2022-10-11T15:56:01.829Z,5.38
2022-10-11T15:58:28.204Z,4.77
2022-10-11T16:00:54.554Z,4.80
2022-10-11T16:03:20.927Z,4.86
2022-10-11T16:05:47.282Z,5.18
2022-10-11T16:08:13.653Z,5.06
2022-10-11T16:10:40.011Z,5.26
2022-10-11T16:13:06.372Z,5.30
2022-10-11T16:15:32.725Z,5.32
2022-10-11T16:17:59.071Z,5.14
2022-10-11T16:20:25.429Z,4.83
2022-10-11T16:22:51.797Z,4.99
2022-10-11T16:25:18.161Z,6.16
2022-10-11T16:27:44.541Z,5.17
2022-10-11T16:30:10.888Z,5.15
2022-10-11T16:32:37.250Z,5.54
2022-10-11T16:35:03.604Z,5.77
2022-10-11T16:37:29.954Z,5.85
2022-10-11T16:39:56.335Z,5.63
2022-10-11T16:42:22.702Z,5.73
2022-10-11T16:44:49.059Z,5.76
2022-10-11T16:47:15.404Z,5.38
2022-10-11T16:49:41.768Z,5.49
2022-10-11T16:52:08.147Z,6.88
2022-10-11T16:54:34.529Z,6.01
2022-10-11T16:57:00.943Z,5.80
2022-10-11T16:59:27.293Z,6.29
2022-10-11T17:01:53.634Z,6.42
2022-10-11T17:04:20.202Z,6.23
2022-10-11T17:06:46.550Z,6.14
2022-10-11T17:09:12.952Z,6.62
2022-10-11T17:11:39.322Z,6.92
2022-10-11T17:14:05.674Z,6.99
2022-10-11T17:16:32.043Z,6.85
2022-10-11T17:18:58.420Z,7.00
2022-10-11T17:21:24.786Z,6.89
2022-10-11T17:23:52.147Z,7.08
2022-10-11T17:26:19.106Z,6.68
2022-10-11T17:28:45.763Z,6.83
2022-10-11T17:31:12.195Z,6.83
2022-10-11T17:33:38.560Z,7.05
2022-10-11T17:36:05.122Z,6.80
2022-10-11T17:38:31.740Z,6.75
2022-10-11T17:40:58.108Z,6.98
2022-10-11T17:43:24.484Z,7.51
2022-10-11T17:45:50.834Z,7.54
2022-10-11T17:48:17.196Z,6.97
2022-10-11T17:50:48.227Z,7.08
2022-10-11T17:53:16.800Z,7.01
2022-10-11T17:55:43.172Z,7.46
2022-10-11T17:58:09.553Z,7.47
2022-10-11T18:00:35.931Z,7.48
2022-10-11T18:03:02.318Z,7.28
2022-10-11T18:05:28.691Z,7.32
2022-10-11T18:07:55.038Z,7.03
2022-10-11T18:10:21.411Z,7.53
2022-10-11T18:12:47.755Z,7.38
2022-10-11T18:15:14.131Z,7.58
2022-10-11T18:17:40.505Z,7.65
2022-10-11T18:20:06.849Z,7.74
2022-10-11T18:22:33.225Z,7.77
2022-10-11T18:24:59.578Z,8.16
2022-10-11T18:27:26.019Z,8.32
2022-10-11T18:29:52.383Z,8.32
2022-10-11T18:32:18.730Z,8.39
2022-10-11T18:34:45.089Z,8.38
2022-10-11T18:37:11.428Z,8.82
2022-10-11T18:39:37.797Z,8.48
2022-10-11T18:42:04.146Z,8.44
2022-10-11T18:44:30.536Z,10.19
2022-10-11T18:46:56.897Z,9.18
2022-10-11T18:49:23.269Z,8.28
2022-10-11T18:51:49.643Z,8.75
2022-10-11T18:54:18.549Z,9.03
2022-10-11T18:56:47.793Z,9.10
2022-10-11T18:59:14.149Z,9.03
2022-10-11T19:01:40.566Z,8.65
2022-10-11T19:04:07.053Z,8.28
2022-10-11T19:06:33.429Z,8.16
2022-10-11T19:08:59.774Z,8.19
2022-10-11T19:11:26.141Z,7.91
2022-10-11T19:13:52.510Z,7.76
2022-10-11T19:16:18.876Z,7.77
2022-10-11T19:18:45.250Z,7.40
2022-10-11T19:21:11.613Z,7.37
2022-10-11T19:23:37.987Z,7.34
2022-10-11T19:26:04.716Z,7.42
2022-10-11T19:28:31.299Z,7.39
2022-10-11T19:30:57.689Z,7.39
2022-10-11T19:33:24.050Z,8.20
2022-10-11T19:35:50.413Z,7.82
2022-10-11T19:38:16.842Z,7.51
2022-10-11T19:40:43.190Z,7.54
2022-10-11T19:43:10.991Z,7.50
2022-10-11T19:45:37.341Z,7.18
2022-10-11T19:48:03.704Z,7.30
2022-10-11T19:50:30.043Z,7.36
2022-10-11T19:52:56.423Z,7.20
2022-10-11T19:55:22.785Z,7.01
2022-10-11T19:57:49.166Z,6.44
2022-10-11T20:00:15.606Z,6.55
2022-10-11T20:02:42.046Z,6.83
2022-10-11T20:05:08.401Z,7.11
2022-10-11T20:07:34.790Z,6.94
2022-10-11T20:10:01.170Z,7.41
2022-10-11T20:12:29.315Z,8.12
2022-10-11T20:14:56.029Z,8.41
2022-10-11T20:17:22.384Z,6.97
2022-10-11T20:19:49.012Z,7.58
2022-10-11T20:22:15.349Z,7.37
2022-10-11T20:24:41.688Z,7.24
2022-10-11T20:27:08.037Z,7.45
2022-10-11T20:29:34.394Z,7.34
2022-10-11T20:32:00.743Z,7.47
2022-10-11T20:34:27.110Z,7.61
2022-10-11T20:36:53.467Z,10.10
2022-10-11T20:39:19.818Z,8.31
2022-10-11T20:41:46.176Z,6.91
2022-10-11T20:44:12.561Z,7.56
2022-10-11T20:46:38.917Z,7.80
2022-10-11T20:49:05.268Z,7.41
2022-10-11T20:51:31.648Z,7.38
2022-10-11T20:53:57.996Z,7.95
2022-10-11T20:56:24.365Z,7.82
2022-10-11T20:58:50.748Z,7.98
2022-10-11T21:01:17.094Z,8.11
2022-10-11T21:03:43.503Z,8.08
2022-10-11T21:06:09.854Z,8.30
2022-10-11T21:08:36.253Z,7.89
2022-10-11T21:11:02.612Z,8.08
2022-10-11T21:13:28.954Z,8.47
2022-10-11T21:15:55.331Z,8.25
2022-10-11T21:18:21.683Z,8.63
2022-10-11T21:20:48.113Z,8.25
2022-10-11T21:23:14.455Z,9.51
2022-10-11T21:25:40.832Z,12.07
2022-10-11T21:28:07.188Z,9.85
2022-10-11T21:30:33.542Z,8.97
2022-10-11T21:32:59.895Z,9.73
2022-10-11T21:35:26.251Z,9.31
2022-10-11T21:37:52.596Z,8.46
2022-10-11T21:40:18.956Z,8.23
2022-10-11T21:42:45.316Z,8.80
2022-10-11T21:45:11.681Z,9.10
2022-10-11T21:47:39.162Z,9.36
2022-10-11T21:50:05.776Z,9.21
2022-10-11T21:52:32.282Z,10.00
2022-10-11T21:54:58.800Z,9.80
2022-10-11T21:57:25.165Z,10.32
2022-10-11T21:59:51.518Z,10.27
2022-10-11T22:02:17.887Z,12.52
2022-10-11T22:04:44.285Z,11.33
2022-10-11T22:07:10.656Z,10.64
2022-10-11T22:09:37.034Z,10.22
2022-10-11T22:12:03.421Z,10.96
2022-10-11T22:14:29.772Z,10.62
2022-10-11T22:16:56.145Z,10.75
2022-10-11T22:19:22.493Z,11.51
2022-10-11T22:21:48.868Z,11.66
2022-10-11T22:24:15.223Z,11.87
2022-10-11T22:26:41.596Z,12.24
2022-10-11T22:29:07.939Z,11.19
2022-10-11T22:31:34.319Z,11.39
2022-10-11T22:34:00.705Z,11.96
2022-10-11T22:36:27.051Z,11.92
2022-10-11T22:38:53.421Z,11.88
2022-10-11T22:41:19.785Z,11.57
2022-10-11T22:43:46.168Z,11.99
2022-10-11T22:46:12.678Z,11.44
2022-10-11T22:48:39.044Z,12.38
2022-10-11T22:51:05.414Z,12.67
2022-10-11T22:53:31.756Z,12.71
2022-10-11T22:55:58.110Z,13.09
2022-10-11T22:58:24.455Z,12.72
2022-10-11T23:00:50.816Z,12.65
2022-10-11T23:03:17.230Z,13.19
2022-10-11T23:05:43.605Z,13.27
2022-10-11T23:08:09.970Z,13.78
2022-10-11T23:10:36.319Z,13.70
2022-10-11T23:13:02.708Z,13.85
2022-10-11T23:15:29.077Z,13.75
2022-10-11T23:17:55.427Z,13.52
2022-10-11T23:20:21.825Z,13.74
2022-10-11T23:22:48.169Z,13.13
2022-10-11T23:25:14.547Z,13.95
2022-10-11T23:27:40.898Z,14.59
2022-10-11T23:30:07.288Z,14.08
2022-10-11T23:32:33.659Z,13.96
2022-10-11T23:35:00.109Z,14.33
2022-10-11T23:37:26.477Z,14.17
2022-10-11T23:39:52.832Z,14.17
2022-10-11T23:42:19.211Z,13.77
2022-10-11T23:44:45.564Z,14.26
2022-10-11T23:47:11.928Z,14.63
2022-10-11T23:49:38.274Z,14.16
2022-10-11T23:52:04.632Z,14.01
2022-10-11T23:54:31.008Z,14.25
2022-10-11T23:56:57.373Z,13.78
2022-10-11T23:59:23.737Z,14.16
